sensor_id;sensor_type;location;lat;lon;timestamp;P1;durP1;ratioP1;P2;durP2;ratioP2
40971;SDS011;26701;47.408;19.174;2023-06-24T00:00:05;348.48;;;332.25;;
40971;SDS011;26701;47.408;19.174;2023-06-24T00:02:32;361.35;;;344.38;;
40971;SDS011;26701;47.408;19.174;2023-06-24T00:07:27;354.90;;;338.48;;
40971;SDS011;26701;47.408;19.174;2023-06-24T00:09:53;354.52;;;338.15;;
40971;SDS011;26701;47.408;19.174;2023-06-24T00:12:19;446.50;;;425.15;;
40971;SDS011;26701;47.408;19.174;2023-06-24T00:14:46;382.02;;;363.85;;
40971;SDS011;26701;47.408;19.174;2023-06-24T00:17:12;350.73;;;334.42;;
40971;SDS011;26701;47.408;19.174;2023-06-24T00:19:38;421.42;;;401.05;;
40971;SDS011;26701;47.408;19.174;2023-06-24T00:22:04;351.30;;;334.73;;
40971;SDS011;26701;47.408;19.174;2023-06-24T00:24:31;431.17;;;410.48;;
40971;SDS011;26701;47.408;19.174;2023-06-24T00:26:58;428.88;;;408.13;;
40971;SDS011;26701;47.408;19.174;2023-06-24T00:29:24;456.38;;;433.77;;
40971;SDS011;26701;47.408;19.174;2023-06-24T00:31:50;412.17;;;392.40;;
40971;SDS011;26701;47.408;19.174;2023-06-24T00:34:17;479.17;;;455.88;;
40971;SDS011;26701;47.408;19.174;2023-06-24T00:36:45;362.15;;;345.13;;
40971;SDS011;26701;47.408;19.174;2023-06-24T00:39:12;397.48;;;378.65;;
40971;SDS011;26701;47.408;19.174;2023-06-24T00:41:38;414.92;;;394.92;;
40971;SDS011;26701;47.408;19.174;2023-06-24T00:44:04;400.58;;;381.63;;
40971;SDS011;26701;47.408;19.174;2023-06-24T00:46:30;468.17;;;445.00;;
40971;SDS011;26701;47.408;19.174;2023-06-24T00:48:59;347.00;;;330.65;;
40971;SDS011;26701;47.408;19.174;2023-06-24T00:51:28;370.48;;;353.05;;
40971;SDS011;26701;47.408;19.174;2023-06-24T00:53:56;370.17;;;352.77;;
40971;SDS011;26701;47.408;19.174;2023-06-24T00:56:31;409.38;;;390.10;;
40971;SDS011;26701;47.408;19.174;2023-06-24T00:59:03;439.52;;;418.52;;
40971;SDS011;26701;47.408;19.174;2023-06-24T01:01:32;452.73;;;431.40;;
40971;SDS011;26701;47.408;19.174;2023-06-24T01:04:00;372.77;;;355.15;;
40971;SDS011;26701;47.408;19.174;2023-06-24T01:06:27;312.15;;;297.63;;
40971;SDS011;26701;47.408;19.174;2023-06-24T01:08:55;274.42;;;262.00;;
40971;SDS011;26701;47.408;19.174;2023-06-24T01:11:22;270.02;;;257.88;;
40971;SDS011;26701;47.408;19.174;2023-06-24T01:13:49;277.48;;;264.58;;
40971;SDS011;26701;47.408;19.174;2023-06-24T01:16:37;269.05;;;256.95;;
40971;SDS011;26701;47.408;19.174;2023-06-24T01:19:13;266.80;;;254.77;;
40971;SDS011;26701;47.408;19.174;2023-06-24T01:28:21;267.75;;;255.60;;
40971;SDS011;26701;47.408;19.174;2023-06-24T01:33:16;277.15;;;264.73;;
40971;SDS011;26701;47.408;19.174;2023-06-24T01:35:50;344.25;;;328.25;;
40971;SDS011;26701;47.408;19.174;2023-06-24T01:38:41;291.67;;;278.23;;
40971;SDS011;26701;47.408;19.174;2023-06-24T01:41:24;306.05;;;292.23;;
40971;SDS011;26701;47.408;19.174;2023-06-24T01:46:19;284.95;;;272.25;;
40971;SDS011;26701;47.408;19.174;2023-06-24T01:48:48;282.02;;;269.40;;
40971;SDS011;26701;47.408;19.174;2023-06-24T01:51:20;273.52;;;260.98;;
40971;SDS011;26701;47.408;19.174;2023-06-24T01:54:05;296.35;;;282.73;;
40971;SDS011;26701;47.408;19.174;2023-06-24T01:56:35;302.92;;;289.30;;
40971;SDS011;26701;47.408;19.174;2023-06-24T01:59:03;245.43;;;234.43;;
40971;SDS011;26701;47.408;19.174;2023-06-24T02:01:35;252.25;;;240.55;;
40971;SDS011;26701;47.408;19.174;2023-06-24T02:04:04;274.45;;;261.92;;
40971;SDS011;26701;47.408;19.174;2023-06-24T02:06:32;295.23;;;281.90;;
40971;SDS011;26701;47.408;19.174;2023-06-24T02:08:58;230.52;;;220.35;;
40971;SDS011;26701;47.408;19.174;2023-06-24T02:11:27;256.75;;;244.77;;
40971;SDS011;26701;47.408;19.174;2023-06-24T02:13:55;258.30;;;246.38;;
40971;SDS011;26701;47.408;19.174;2023-06-24T02:16:21;256.98;;;245.32;;
40971;SDS011;26701;47.408;19.174;2023-06-24T02:18:47;277.95;;;265.23;;
40971;SDS011;26701;47.408;19.174;2023-06-24T02:21:15;267.02;;;254.98;;
40971;SDS011;26701;47.408;19.174;2023-06-24T02:23:44;301.90;;;288.30;;
40971;SDS011;26701;47.408;19.174;2023-06-24T02:26:11;310.98;;;296.98;;
40971;SDS011;26701;47.408;19.174;2023-06-24T02:28:37;280.95;;;268.13;;
40971;SDS011;26701;47.408;19.174;2023-06-24T02:31:04;264.60;;;252.77;;
40971;SDS011;26701;47.408;19.174;2023-06-24T02:33:31;275.00;;;262.63;;
40971;SDS011;26701;47.408;19.174;2023-06-24T02:35:57;321.10;;;306.33;;
40971;SDS011;26701;47.408;19.174;2023-06-24T02:38:24;278.77;;;266.13;;
40971;SDS011;26701;47.408;19.174;2023-06-24T02:40:50;299.75;;;286.23;;
40971;SDS011;26701;47.408;19.174;2023-06-24T02:43:17;314.80;;;300.38;;
40971;SDS011;26701;47.408;19.174;2023-06-24T02:45:43;342.00;;;325.95;;
40971;SDS011;26701;47.408;19.174;2023-06-24T02:48:09;356.05;;;339.42;;
40971;SDS011;26701;47.408;19.174;2023-06-24T02:50:37;343.23;;;327.77;;
40971;SDS011;26701;47.408;19.174;2023-06-24T02:53:06;366.98;;;350.10;;
40971;SDS011;26701;47.408;19.174;2023-06-24T02:55:36;316.00;;;301.10;;
40971;SDS011;26701;47.408;19.174;2023-06-24T02:58:03;323.58;;;308.75;;
40971;SDS011;26701;47.408;19.174;2023-06-24T03:00:33;371.65;;;354.58;;
40971;SDS011;26701;47.408;19.174;2023-06-24T03:03:22;370.00;;;352.70;;
40971;SDS011;26701;47.408;19.174;2023-06-24T03:05:51;352.42;;;336.20;;
40971;SDS011;26701;47.408;19.174;2023-06-24T03:08:19;368.15;;;351.17;;
40971;SDS011;26701;47.408;19.174;2023-06-24T03:10:47;339.50;;;323.88;;
40971;SDS011;26701;47.408;19.174;2023-06-24T03:13:19;363.15;;;346.45;;
40971;SDS011;26701;47.408;19.174;2023-06-24T03:15:50;358.02;;;341.65;;
40971;SDS011;26701;47.408;19.174;2023-06-24T03:18:16;324.98;;;310.48;;
40971;SDS011;26701;47.408;19.174;2023-06-24T03:20:45;362.63;;;346.13;;
40971;SDS011;26701;47.408;19.174;2023-06-24T03:23:15;353.02;;;336.77;;
40971;SDS011;26701;47.408;19.174;2023-06-24T03:25:42;344.80;;;329.17;;
40971;SDS011;26701;47.408;19.174;2023-06-24T03:28:10;316.63;;;302.50;;
40971;SDS011;26701;47.408;19.174;2023-06-24T03:30:45;330.15;;;315.48;;
40971;SDS011;26701;47.408;19.174;2023-06-24T03:33:15;334.20;;;319.38;;
40971;SDS011;26701;47.408;19.174;2023-06-24T03:35:43;365.35;;;348.77;;
40971;SDS011;26701;47.408;19.174;2023-06-24T03:38:12;362.23;;;345.73;;
40971;SDS011;26701;47.408;19.174;2023-06-24T03:40:39;331.35;;;316.55;;
40971;SDS011;26701;47.408;19.174;2023-06-24T03:43:05;350.75;;;335.00;;
40971;SDS011;26701;47.408;19.174;2023-06-24T03:45:32;326.15;;;311.65;;
40971;SDS011;26701;47.408;19.174;2023-06-24T03:47:59;317.83;;;303.35;;
40971;SDS011;26701;47.408;19.174;2023-06-24T03:50:25;335.50;;;320.50;;
40971;SDS011;26701;47.408;19.174;2023-06-24T03:52:52;335.88;;;320.67;;
40971;SDS011;26701;47.408;19.174;2023-06-24T03:55:18;344.13;;;328.75;;
40971;SDS011;26701;47.408;19.174;2023-06-24T03:57:44;320.80;;;306.42;;
40971;SDS011;26701;47.408;19.174;2023-06-24T04:00:10;332.17;;;317.05;;
40971;SDS011;26701;47.408;19.174;2023-06-24T04:02:45;297.48;;;284.20;;
40971;SDS011;26701;47.408;19.174;2023-06-24T04:05:12;306.83;;;293.33;;
40971;SDS011;26701;47.408;19.174;2023-06-24T04:07:38;299.85;;;286.48;;
40971;SDS011;26701;47.408;19.174;2023-06-24T04:10:04;294.02;;;280.92;;
40971;SDS011;26701;47.408;19.174;2023-06-24T04:12:35;312.45;;;298.38;;
40971;SDS011;26701;47.408;19.174;2023-06-24T04:15:02;340.15;;;324.63;;
40971;SDS011;26701;47.408;19.174;2023-06-24T04:17:29;329.02;;;314.45;;
40971;SDS011;26701;47.408;19.174;2023-06-24T04:19:58;341.85;;;326.67;;
40971;SDS011;26701;47.408;19.174;2023-06-24T04:22:24;310.17;;;296.10;;
40971;SDS011;26701;47.408;19.174;2023-06-24T04:24:54;338.98;;;323.83;;
40971;SDS011;26701;47.408;19.174;2023-06-24T04:27:20;368.58;;;351.95;;
40971;SDS011;26701;47.408;19.174;2023-06-24T04:29:47;361.45;;;344.95;;
40971;SDS011;26701;47.408;19.174;2023-06-24T04:32:13;348.42;;;332.60;;
40971;SDS011;26701;47.408;19.174;2023-06-24T04:34:39;368.50;;;351.67;;
40971;SDS011;26701;47.408;19.174;2023-06-24T04:37:06;363.33;;;346.95;;
40971;SDS011;26701;47.408;19.174;2023-06-24T04:39:32;375.10;;;358.15;;
40971;SDS011;26701;47.408;19.174;2023-06-24T04:41:58;348.65;;;332.88;;
40971;SDS011;26701;47.408;19.174;2023-06-24T04:44:24;365.45;;;349.05;;
40971;SDS011;26701;47.408;19.174;2023-06-24T04:46:50;354.65;;;338.67;;
40971;SDS011;26701;47.408;19.174;2023-06-24T04:49:17;359.85;;;343.35;;
40971;SDS011;26701;47.408;19.174;2023-06-24T04:51:43;342.52;;;326.98;;
40971;SDS011;26701;47.408;19.174;2023-06-24T04:54:10;373.08;;;356.02;;
40971;SDS011;26701;47.408;19.174;2023-06-24T04:56:37;359.90;;;343.63;;
40971;SDS011;26701;47.408;19.174;2023-06-24T04:59:03;367.80;;;350.98;;
40971;SDS011;26701;47.408;19.174;2023-06-24T05:01:29;356.27;;;339.73;;
40971;SDS011;26701;47.408;19.174;2023-06-24T05:03:56;328.23;;;313.35;;
40971;SDS011;26701;47.408;19.174;2023-06-24T05:06:22;330.85;;;316.00;;
40971;SDS011;26701;47.408;19.174;2023-06-24T05:08:48;313.27;;;298.92;;
40971;SDS011;26701;47.408;19.174;2023-06-24T05:11:14;358.15;;;341.92;;
40971;SDS011;26701;47.408;19.174;2023-06-24T05:13:40;333.52;;;317.92;;
40971;SDS011;26701;47.408;19.174;2023-06-24T05:16:06;341.45;;;326.13;;
40971;SDS011;26701;47.408;19.174;2023-06-24T05:18:32;338.17;;;322.83;;
40971;SDS011;26701;47.408;19.174;2023-06-24T05:20:58;337.35;;;322.10;;
40971;SDS011;26701;47.408;19.174;2023-06-24T05:23:24;353.25;;;337.40;;
40971;SDS011;26701;47.408;19.174;2023-06-24T05:25:51;364.33;;;347.58;;
40971;SDS011;26701;47.408;19.174;2023-06-24T05:28:17;309.27;;;295.40;;
40971;SDS011;26701;47.408;19.174;2023-06-24T05:30:44;321.15;;;306.10;;
40971;SDS011;26701;47.408;19.174;2023-06-24T05:33:10;321.02;;;306.52;;
40971;SDS011;26701;47.408;19.174;2023-06-24T05:35:36;329.80;;;315.00;;
40971;SDS011;26701;47.408;19.174;2023-06-24T05:38:05;313.27;;;299.17;;
40971;SDS011;26701;47.408;19.174;2023-06-24T05:40:32;318.13;;;303.58;;
40971;SDS011;26701;47.408;19.174;2023-06-24T05:42:58;313.98;;;299.63;;
40971;SDS011;26701;47.408;19.174;2023-06-24T05:45:26;314.80;;;300.60;;
40971;SDS011;26701;47.408;19.174;2023-06-24T05:47:52;312.05;;;297.80;;
40971;SDS011;26701;47.408;19.174;2023-06-24T05:50:19;350.35;;;333.52;;
40971;SDS011;26701;47.408;19.174;2023-06-24T05:52:46;336.83;;;321.08;;
40971;SDS011;26701;47.408;19.174;2023-06-24T05:55:12;329.48;;;314.13;;
40971;SDS011;26701;47.408;19.174;2023-06-24T05:57:39;380.40;;;362.08;;
40971;SDS011;26701;47.408;19.174;2023-06-24T06:00:05;424.92;;;404.35;;
40971;SDS011;26701;47.408;19.174;2023-06-24T06:02:37;441.92;;;420.23;;
40971;SDS011;26701;47.408;19.174;2023-06-24T06:05:03;424.10;;;403.45;;
40971;SDS011;26701;47.408;19.174;2023-06-24T06:07:29;401.88;;;382.90;;
40971;SDS011;26701;47.408;19.174;2023-06-24T06:09:55;347.10;;;330.65;;
40971;SDS011;26701;47.408;19.174;2023-06-24T06:12:22;399.85;;;380.20;;
40971;SDS011;26701;47.408;19.174;2023-06-24T06:14:48;452.48;;;430.17;;
40971;SDS011;26701;47.408;19.174;2023-06-24T06:17:14;456.20;;;433.77;;
40971;SDS011;26701;47.408;19.174;2023-06-24T06:19:40;392.55;;;372.23;;
40971;SDS011;26701;47.408;19.174;2023-06-24T06:22:06;425.58;;;404.30;;
40971;SDS011;26701;47.408;19.174;2023-06-24T06:24:33;337.52;;;321.38;;
40971;SDS011;26701;47.408;19.174;2023-06-24T06:26:59;340.90;;;324.95;;
40971;SDS011;26701;47.408;19.174;2023-06-24T06:29:25;403.30;;;383.95;;
40971;SDS011;26701;47.408;19.174;2023-06-24T06:31:51;426.05;;;405.15;;
40971;SDS011;26701;47.408;19.174;2023-06-24T06:34:20;356.75;;;339.75;;
40971;SDS011;26701;47.408;19.174;2023-06-24T06:36:46;419.48;;;398.90;;
40971;SDS011;26701;47.408;19.174;2023-06-24T06:39:12;416.15;;;395.30;;
40971;SDS011;26701;47.408;19.174;2023-06-24T06:41:38;346.13;;;329.08;;
40971;SDS011;26701;47.408;19.174;2023-06-24T06:44:13;454.80;;;432.02;;
40971;SDS011;26701;47.408;19.174;2023-06-24T06:46:39;403.55;;;383.17;;
40971;SDS011;26701;47.408;19.174;2023-06-24T06:49:05;400.25;;;380.45;;
40971;SDS011;26701;47.408;19.174;2023-06-24T06:51:31;423.52;;;402.65;;
40971;SDS011;26701;47.408;19.174;2023-06-24T06:53:59;334.88;;;318.00;;
40971;SDS011;26701;47.408;19.174;2023-06-24T06:56:25;358.38;;;341.15;;
40971;SDS011;26701;47.408;19.174;2023-06-24T06:58:52;350.27;;;333.50;;
40971;SDS011;26701;47.408;19.174;2023-06-24T07:01:18;319.95;;;304.13;;
40971;SDS011;26701;47.408;19.174;2023-06-24T07:03:44;299.65;;;285.60;;
40971;SDS011;26701;47.408;19.174;2023-06-24T07:06:10;350.33;;;332.60;;
40971;SDS011;26701;47.408;19.174;2023-06-24T07:08:37;353.98;;;336.98;;
40971;SDS011;26701;47.408;19.174;2023-06-24T07:11:03;376.52;;;357.63;;
40971;SDS011;26701;47.408;19.174;2023-06-24T07:13:29;324.17;;;308.65;;
40971;SDS011;26701;47.408;19.174;2023-06-24T07:15:55;334.25;;;317.88;;
40971;SDS011;26701;47.408;19.174;2023-06-24T07:18:21;267.17;;;254.05;;
40971;SDS011;26701;47.408;19.174;2023-06-24T07:20:47;384.17;;;365.25;;
40971;SDS011;26701;47.408;19.174;2023-06-24T07:23:14;396.40;;;376.33;;
40971;SDS011;26701;47.408;19.174;2023-06-24T07:25:40;379.77;;;360.58;;
40971;SDS011;26701;47.408;19.174;2023-06-24T07:28:06;376.05;;;357.23;;
40971;SDS011;26701;47.408;19.174;2023-06-24T07:30:32;289.33;;;275.67;;
40971;SDS011;26701;47.408;19.174;2023-06-24T07:32:58;274.75;;;261.50;;
40971;SDS011;26701;47.408;19.174;2023-06-24T07:35:30;264.92;;;252.50;;
40971;SDS011;26701;47.408;19.174;2023-06-24T07:37:56;447.00;;;421.85;;
40971;SDS011;26701;47.408;19.174;2023-06-24T07:40:22;564.25;;;530.25;;
40971;SDS011;26701;47.408;19.174;2023-06-24T07:42:48;302.25;;;287.55;;
40971;SDS011;26701;47.408;19.174;2023-06-24T07:45:15;241.00;;;229.57;;
40971;SDS011;26701;47.408;19.174;2023-06-24T07:47:41;261.67;;;249.20;;
40971;SDS011;26701;47.408;19.174;2023-06-24T07:50:07;248.52;;;236.40;;
40971;SDS011;26701;47.408;19.174;2023-06-24T07:52:36;248.13;;;236.40;;
40971;SDS011;26701;47.408;19.174;2023-06-24T07:55:02;266.33;;;253.27;;
40971;SDS011;26701;47.408;19.174;2023-06-24T07:57:29;241.13;;;229.88;;
40971;SDS011;26701;47.408;19.174;2023-06-24T07:59:55;254.25;;;242.23;;
40971;SDS011;26701;47.408;19.174;2023-06-24T08:02:21;315.10;;;299.13;;
40971;SDS011;26701;47.408;19.174;2023-06-24T08:04:49;347.45;;;329.52;;
40971;SDS011;26701;47.408;19.174;2023-06-24T08:07:15;315.80;;;300.05;;
40971;SDS011;26701;47.408;19.174;2023-06-24T08:09:41;274.27;;;260.75;;
40971;SDS011;26701;47.408;19.174;2023-06-24T08:12:08;287.35;;;273.08;;
40971;SDS011;26701;47.408;19.174;2023-06-24T08:14:34;292.48;;;276.65;;
40971;SDS011;26701;47.408;19.174;2023-06-24T08:17:00;284.08;;;270.02;;
40971;SDS011;26701;47.408;19.174;2023-06-24T08:19:27;264.63;;;251.93;;
40971;SDS011;26701;47.408;19.174;2023-06-24T08:21:53;260.25;;;247.65;;
40971;SDS011;26701;47.408;19.174;2023-06-24T08:24:19;255.52;;;243.05;;
40971;SDS011;26701;47.408;19.174;2023-06-24T08:26:45;264.38;;;251.20;;
40971;SDS011;26701;47.408;19.174;2023-06-24T08:29:11;266.50;;;253.50;;
40971;SDS011;26701;47.408;19.174;2023-06-24T08:31:40;269.73;;;256.48;;
40971;SDS011;26701;47.408;19.174;2023-06-24T08:34:06;279.65;;;265.40;;
40971;SDS011;26701;47.408;19.174;2023-06-24T08:36:32;306.35;;;290.23;;
40971;SDS011;26701;47.408;19.174;2023-06-24T08:38:59;331.48;;;314.30;;
40971;SDS011;26701;47.408;19.174;2023-06-24T08:41:25;339.33;;;321.35;;
40971;SDS011;26701;47.408;19.174;2023-06-24T08:43:52;345.85;;;326.95;;
40971;SDS011;26701;47.408;19.174;2023-06-24T08:46:19;362.60;;;343.48;;
40971;SDS011;26701;47.408;19.174;2023-06-24T08:48:48;335.52;;;318.10;;
40971;SDS011;26701;47.408;19.174;2023-06-24T08:51:21;343.70;;;324.40;;
40971;SDS011;26701;47.408;19.174;2023-06-24T08:53:52;329.88;;;312.42;;
40971;SDS011;26701;47.408;19.174;2023-06-24T08:56:18;419.40;;;396.02;;
40971;SDS011;26701;47.408;19.174;2023-06-24T08:58:45;316.27;;;300.08;;
40971;SDS011;26701;47.408;19.174;2023-06-24T09:01:11;318.25;;;300.25;;
40971;SDS011;26701;47.408;19.174;2023-06-24T09:03:37;310.73;;;294.60;;
40971;SDS011;26701;47.408;19.174;2023-06-24T09:06:03;330.00;;;311.13;;
40971;SDS011;26701;47.408;19.174;2023-06-24T09:08:30;555.85;;;521.28;;
40971;SDS011;26701;47.408;19.174;2023-06-24T09:10:56;458.17;;;431.40;;
40971;SDS011;26701;47.408;19.174;2023-06-24T09:13:35;477.08;;;447.88;;
40971;SDS011;26701;47.408;19.174;2023-06-24T09:16:11;471.90;;;443.88;;
40971;SDS011;26701;47.408;19.174;2023-06-24T09:18:39;516.97;;;485.58;;
40971;SDS011;26701;47.408;19.174;2023-06-24T09:21:05;421.98;;;397.90;;
40971;SDS011;26701;47.408;19.174;2023-06-24T09:23:36;445.67;;;419.80;;
40971;SDS011;26701;47.408;19.174;2023-06-24T09:26:02;365.73;;;345.33;;
40971;SDS011;26701;47.408;19.174;2023-06-24T09:28:29;454.08;;;427.70;;
40971;SDS011;26701;47.408;19.174;2023-06-24T09:31:08;471.00;;;442.60;;
40971;SDS011;26701;47.408;19.174;2023-06-24T09:33:35;508.13;;;477.02;;
40971;SDS011;26701;47.408;19.174;2023-06-24T09:36:02;513.63;;;481.95;;
40971;SDS011;26701;47.408;19.174;2023-06-24T09:38:33;520.00;;;487.83;;
40971;SDS011;26701;47.408;19.174;2023-06-24T09:41:03;525.17;;;492.73;;
40971;SDS011;26701;47.408;19.174;2023-06-24T09:43:37;534.78;;;501.52;;
40971;SDS011;26701;47.408;19.174;2023-06-24T09:46:07;528.80;;;496.00;;
40971;SDS011;26701;47.408;19.174;2023-06-24T09:48:34;583.35;;;546.75;;
40971;SDS011;26701;47.408;19.174;2023-06-24T09:51:01;404.13;;;381.52;;
40971;SDS011;26701;47.408;19.174;2023-06-24T09:53:31;408.92;;;385.75;;
40971;SDS011;26701;47.408;19.174;2023-06-24T09:56:01;388.85;;;367.35;;
40971;SDS011;26701;47.408;19.174;2023-06-24T09:58:32;415.83;;;392.27;;
40971;SDS011;26701;47.408;19.174;2023-06-24T10:01:01;424.30;;;399.48;;
40971;SDS011;26701;47.408;19.174;2023-06-24T10:03:29;383.17;;;361.95;;
40971;SDS011;26701;47.408;19.174;2023-06-24T10:05:57;512.13;;;482.02;;
40971;SDS011;26701;47.408;19.174;2023-06-24T10:08:23;1042.72;;;972.78;;
40971;SDS011;26701;47.408;19.174;2023-06-24T10:10:50;1155.28;;;999.90;;
40971;SDS011;26701;47.408;19.174;2023-06-24T10:13:16;1165.60;;;999.90;;
40971;SDS011;26701;47.408;19.174;2023-06-24T10:15:42;1089.15;;;999.90;;
40971;SDS011;26701;47.408;19.174;2023-06-24T10:20:55;946.42;;;883.00;;
40971;SDS011;26701;47.408;19.174;2023-06-24T10:23:21;1032.65;;;963.63;;
40971;SDS011;26701;47.408;19.174;2023-06-24T10:25:47;1200.30;;;999.90;;
40971;SDS011;26701;47.408;19.174;2023-06-24T10:28:14;1144.07;;;999.90;;
40971;SDS011;26701;47.408;19.174;2023-06-24T10:30:40;1040.20;;;967.92;;
40971;SDS011;26701;47.408;19.174;2023-06-24T10:33:20;1104.65;;;999.90;;
40971;SDS011;26701;47.408;19.174;2023-06-24T10:35:46;1041.47;;;968.50;;
40971;SDS011;26701;47.408;19.174;2023-06-24T10:38:12;912.00;;;847.75;;
40971;SDS011;26701;47.408;19.174;2023-06-24T10:40:39;883.50;;;819.17;;
40971;SDS011;26701;47.408;19.174;2023-06-24T10:45:48;998.47;;;927.70;;
40971;SDS011;26701;47.408;19.174;2023-06-24T10:48:18;688.22;;;639.22;;
40971;SDS011;26701;47.408;19.174;2023-06-24T10:50:47;624.78;;;581.88;;
40971;SDS011;26701;47.408;19.174;2023-06-24T10:53:14;574.77;;;535.47;;
40971;SDS011;26701;47.408;19.174;2023-06-24T10:55:43;634.47;;;591.10;;
40971;SDS011;26701;47.408;19.174;2023-06-24T10:58:11;600.60;;;559.03;;
40971;SDS011;26701;47.408;19.174;2023-06-24T11:00:39;687.25;;;639.03;;
40971;SDS011;26701;47.408;19.174;2023-06-24T11:03:11;660.00;;;613.53;;
40971;SDS011;26701;47.408;19.174;2023-06-24T11:05:39;688.90;;;640.75;;
40971;SDS011;26701;47.408;19.174;2023-06-24T11:08:07;651.67;;;607.10;;
40971;SDS011;26701;47.408;19.174;2023-06-24T11:10:33;677.78;;;631.42;;
40971;SDS011;26701;47.408;19.174;2023-06-24T11:13:05;652.70;;;607.35;;
40971;SDS011;26701;47.408;19.174;2023-06-24T11:15:31;550.35;;;512.78;;
40971;SDS011;26701;47.408;19.174;2023-06-24T11:18:01;545.97;;;509.63;;
40971;SDS011;26701;47.408;19.174;2023-06-24T11:20:28;562.53;;;524.45;;
40971;SDS011;26701;47.408;19.174;2023-06-24T11:22:54;525.53;;;491.55;;
40971;SDS011;26701;47.408;19.174;2023-06-24T11:25:21;617.20;;;576.08;;
40971;SDS011;26701;47.408;19.174;2023-06-24T11:27:47;540.80;;;505.42;;
40971;SDS011;26701;47.408;19.174;2023-06-24T11:30:16;504.20;;;471.58;;
40971;SDS011;26701;47.408;19.174;2023-06-24T11:32:43;517.20;;;482.88;;
40971;SDS011;26701;47.408;19.174;2023-06-24T11:35:10;604.63;;;563.65;;
40971;SDS011;26701;47.408;19.174;2023-06-24T11:37:37;526.17;;;491.13;;
40971;SDS011;26701;47.408;19.174;2023-06-24T11:40:07;547.25;;;509.75;;
40971;SDS011;26701;47.408;19.174;2023-06-24T11:42:41;587.78;;;546.40;;
40971;SDS011;26701;47.408;19.174;2023-06-24T11:45:10;642.35;;;597.60;;
40971;SDS011;26701;47.408;19.174;2023-06-24T11:47:37;705.63;;;655.83;;
40971;SDS011;26701;47.408;19.174;2023-06-24T11:50:05;724.83;;;673.25;;
40971;SDS011;26701;47.408;19.174;2023-06-24T11:55:13;546.53;;;507.67;;
40971;SDS011;26701;47.408;19.174;2023-06-24T11:57:50;513.15;;;477.38;;
40971;SDS011;26701;47.408;19.174;2023-06-24T12:00:23;511.40;;;476.02;;
40971;SDS011;26701;47.408;19.174;2023-06-24T12:02:54;555.17;;;517.47;;
40971;SDS011;26701;47.408;19.174;2023-06-24T12:05:34;567.53;;;528.90;;
40971;SDS011;26701;47.408;19.174;2023-06-24T12:08:02;577.42;;;538.58;;
40971;SDS011;26701;47.408;19.174;2023-06-24T12:10:30;567.38;;;528.15;;
40971;SDS011;26701;47.408;19.174;2023-06-24T12:12:59;550.35;;;512.78;;
40971;SDS011;26701;47.408;19.174;2023-06-24T12:15:25;580.28;;;539.75;;
40971;SDS011;26701;47.408;19.174;2023-06-24T12:17:52;532.42;;;495.80;;
40971;SDS011;26701;47.408;19.174;2023-06-24T12:20:18;572.97;;;532.83;;
40971;SDS011;26701;47.408;19.174;2023-06-24T12:22:44;497.85;;;464.33;;
40971;SDS011;26701;47.408;19.174;2023-06-24T12:25:11;499.92;;;465.98;;
40971;SDS011;26701;47.408;19.174;2023-06-24T12:27:38;497.92;;;464.90;;
40971;SDS011;26701;47.408;19.174;2023-06-24T12:30:06;478.52;;;446.90;;
40971;SDS011;26701;47.408;19.174;2023-06-24T12:32:32;531.47;;;496.02;;
40971;SDS011;26701;47.408;19.174;2023-06-24T12:34:58;600.13;;;559.03;;
40971;SDS011;26701;47.408;19.174;2023-06-24T12:37:25;530.67;;;494.55;;
40971;SDS011;26701;47.408;19.174;2023-06-24T12:39:51;534.15;;;497.20;;
40971;SDS011;26701;47.408;19.174;2023-06-24T12:42:17;524.80;;;488.20;;
40971;SDS011;26701;47.408;19.174;2023-06-24T12:44:43;532.55;;;495.25;;
40971;SDS011;26701;47.408;19.174;2023-06-24T12:47:09;535.35;;;497.77;;
40971;SDS011;26701;47.408;19.174;2023-06-24T12:49:35;535.58;;;497.75;;
40971;SDS011;26701;47.408;19.174;2023-06-24T12:52:01;593.95;;;551.22;;
40971;SDS011;26701;47.408;19.174;2023-06-24T12:54:27;632.05;;;586.28;;
40971;SDS011;26701;47.408;19.174;2023-06-24T12:56:52;658.75;;;610.88;;
40971;SDS011;26701;47.408;19.174;2023-06-24T12:59:19;624.72;;;579.03;;
40971;SDS011;26701;47.408;19.174;2023-06-24T13:01:45;536.83;;;498.80;;
40971;SDS011;26701;47.408;19.174;2023-06-24T13:04:11;611.20;;;567.00;;
40971;SDS011;26701;47.408;19.174;2023-06-24T13:06:37;613.38;;;569.53;;
40971;SDS011;26701;47.408;19.174;2023-06-24T13:09:03;578.80;;;538.42;;
40971;SDS011;26701;47.408;19.174;2023-06-24T13:11:28;543.05;;;505.73;;
40971;SDS011;26701;47.408;19.174;2023-06-24T13:13:55;549.90;;;512.08;;
40971;SDS011;26701;47.408;19.174;2023-06-24T13:16:20;606.42;;;563.92;;
40971;SDS011;26701;47.408;19.174;2023-06-24T13:18:47;601.38;;;559.75;;
40971;SDS011;26701;47.408;19.174;2023-06-24T13:21:13;668.13;;;621.90;;
40971;SDS011;26701;47.408;19.174;2023-06-24T13:23:39;579.72;;;540.25;;
40971;SDS011;26701;47.408;19.174;2023-06-24T13:26:05;623.72;;;580.95;;
40971;SDS011;26701;47.408;19.174;2023-06-24T13:28:31;527.80;;;493.15;;
40971;SDS011;26701;47.408;19.174;2023-06-24T13:30:58;503.58;;;470.67;;
40971;SDS011;26701;47.408;19.174;2023-06-24T13:33:24;484.95;;;453.42;;
40971;SDS011;26701;47.408;19.174;2023-06-24T13:35:51;533.67;;;498.77;;
40971;SDS011;26701;47.408;19.174;2023-06-24T13:38:17;519.95;;;486.02;;
40971;SDS011;26701;47.408;19.174;2023-06-24T13:40:43;498.83;;;466.77;;
40971;SDS011;26701;47.408;19.174;2023-06-24T13:43:10;637.30;;;594.58;;
40971;SDS011;26701;47.408;19.174;2023-06-24T13:45:42;561.40;;;524.33;;
40971;SDS011;26701;47.408;19.174;2023-06-24T13:48:08;467.35;;;437.13;;
40971;SDS011;26701;47.408;19.174;2023-06-24T13:50:34;634.67;;;591.13;;
40971;SDS011;26701;47.408;19.174;2023-06-24T13:53:00;435.15;;;407.23;;
40971;SDS011;26701;47.408;19.174;2023-06-24T13:55:26;431.70;;;403.98;;
40971;SDS011;26701;47.408;19.174;2023-06-24T13:57:52;459.35;;;429.27;;
40971;SDS011;26701;47.408;19.174;2023-06-24T14:00:18;489.80;;;456.20;;
40971;SDS011;26701;47.408;19.174;2023-06-24T14:02:45;451.85;;;422.80;;
40971;SDS011;26701;47.408;19.174;2023-06-24T14:05:11;478.27;;;448.00;;
40971;SDS011;26701;47.408;19.174;2023-06-24T14:07:37;609.03;;;567.30;;